Time;durP1;ratioP1;P1;durP2;ratioP2;P2;SDS_P1;SDS_P2;PMS_P1;PMS_P2;Temp;Humidity;BMP_temperature;BMP_pressure;BME280_temperature;BME280_humidity;BME280_pressure;Samples;Min_cycle;Max_cycle;Signal;HPM_P1;HPM_P2
2021/11/14 00:00:46;;;;;;;41.57;13.30;;;;;;;;;;5050824;28;20278;-76
2021/11/14 00:03:13;;;;;;;34.60;13.47;;;;;;;;;;5045203;28;20289;-76
2021/11/14 00:05:42;;;;;;;34.73;13.10;;;;;;;;;;5044853;28;20735;-78
2021/11/14 00:08:10;;;;;;;35.37;12.50;;;;;;;;;;5050976;28;20937;-78
2021/11/14 00:10:37;;;;;;;34.40;12.30;;;;;;;;;;5055467;28;20252;-76
2021/11/14 00:13:04;;;;;;;32.13;11.77;;;;;;;;;;5055875;28;20233;-76
2021/11/14 00:15:32;;;;;;;43.77;13.33;;;;;;;;;;5051786;28;20301;-75
2021/11/14 00:18:00;;;;;;;39.23;13.47;;;;;;;;;;5052833;28;20309;-76
2021/11/14 00:20:28;;;;;;;35.40;13.13;;;;;;;;;;5053583;28;20232;-75
2021/11/14 00:22:55;;;;;;;32.60;12.40;;;;;;;;;;5052399;28;20245;-75
2021/11/14 00:25:22;;;;;;;38.63;13.03;;;;;;;;;;5052919;28;20328;-75
2021/11/14 00:27:50;;;;;;;36.40;12.90;;;;;;;;;;5054559;28;20296;-75
2021/11/14 00:30:18;;;;;;;42.67;14.47;;;;;;;;;;5053588;28;20657;-76
2021/11/14 00:32:45;;;;;;;38.37;13.93;;;;;;;;;;5052656;28;20227;-75
2021/11/14 00:35:15;;;;;;;35.77;12.67;;;;;;;;;;5057700;28;20259;-75
2021/11/14 00:37:43;;;;;;;28.33;11.70;;;;;;;;;;5051223;28;20202;-76
2021/11/14 00:40:13;;;;;;;27.03;11.33;;;;;;;;;;5052699;28;20356;-76
2021/11/14 00:42:40;;;;;;;28.50;12.33;;;;;;;;;;5052557;28;20202;-76
2021/11/14 00:45:08;;;;;;;25.63;10.90;;;;;;;;;;5049888;28;20234;-74
2021/11/14 00:47:35;;;;;;;29.43;11.13;;;;;;;;;;5061705;28;20267;-74
2021/11/14 00:50:07;;;;;;;31.43;12.80;;;;;;;;;;5058417;28;20758;-74
2021/11/14 00:52:36;;;;;;;25.83;11.50;;;;;;;;;;5051388;28;20246;-75
2021/11/14 00:55:03;;;;;;;28.50;11.07;;;;;;;;;;5052384;28;20716;-75
2021/11/14 00:57:30;;;;;;;28.53;11.73;;;;;;;;;;5051420;28;20921;-75
2021/11/14 00:59:57;;;;;;;32.03;12.83;;;;;;;;;;5051138;28;20253;-75
2021/11/14 01:02:24;;;;;;;30.57;12.97;;;;;;;;;;5052495;28;20290;-75
2021/11/14 01:04:52;;;;;;;23.40;10.47;;;;;;;;;;5055375;28;20227;-75
2021/11/14 01:07:19;;;;;;;29.37;11.27;;;;;;;;;;5054509;28;20293;-74
2021/11/14 01:09:48;;;;;;;27.27;11.10;;;;;;;;;;5052680;28;20313;-75
2021/11/14 01:12:15;;;;;;;26.70;10.07;;;;;;;;;;5051951;28;20313;-75
2021/11/14 01:14:42;;;;;;;23.80;10.23;;;;;;;;;;5051684;28;20298;-75
2021/11/14 01:17:10;;;;;;;28.23;12.17;;;;;;;;;;5051044;28;20308;-75
2021/11/14 01:19:37;;;;;;;39.33;14.27;;;;;;;;;;5053360;28;20319;-75
2021/11/14 01:22:05;;;;;;;31.93;13.33;;;;;;;;;;5051083;28;20247;-75
2021/11/14 01:24:32;;;;;;;28.83;12.03;;;;;;;;;;5052209;28;20202;-75
2021/11/14 01:27:00;;;;;;;26.03;11.57;;;;;;;;;;5053402;28;20303;-75
2021/11/14 01:29:28;;;;;;;28.87;11.50;;;;;;;;;;5051132;28;20222;-75
2021/11/14 01:31:55;;;;;;;27.33;10.73;;;;;;;;;;5052038;28;20224;-75
2021/11/14 01:34:22;;;;;;;26.30;9.80;;;;;;;;;;5049682;28;20687;-74
2021/11/14 01:36:49;;;;;;;26.47;10.53;;;;;;;;;;5051190;28;20218;-74
2021/11/14 01:39:17;;;;;;;28.57;11.53;;;;;;;;;;5052391;28;20724;-75
2021/11/14 01:41:44;;;;;;;31.93;11.87;;;;;;;;;;5051800;28;20230;-75
2021/11/14 01:44:13;;;;;;;28.27;11.93;;;;;;;;;;5051528;28;20234;-74
2021/11/14 01:46:42;;;;;;;25.57;11.47;;;;;;;;;;5050123;28;20695;-74
2021/11/14 01:49:09;;;;;;;24.37;10.87;;;;;;;;;;5050407;28;20578;-74
2021/11/14 01:51:37;;;;;;;28.57;10.43;;;;;;;;;;5050687;28;20362;-75
2021/11/14 01:54:04;;;;;;;25.53;10.33;;;;;;;;;;5050398;28;21016;-74
2021/11/14 01:56:31;;;;;;;22.37;9.43;;;;;;;;;;5058067;28;20871;-75
2021/11/14 01:58:59;;;;;;;20.80;9.47;;;;;;;;;;5052039;28;20329;-75
2021/11/14 02:01:32;;;;;;;20.43;9.97;;;;;;;;;;5053945;28;20203;-76
2021/11/14 02:04:02;;;;;;;17.27;8.77;;;;;;;;;;5049479;28;21711;-75
2021/11/14 02:06:30;;;;;;;17.83;9.17;;;;;;;;;;5050844;28;20201;-76
2021/11/14 02:08:59;;;;;;;22.13;10.00;;;;;;;;;;5050541;28;20283;-76
2021/11/14 02:11:27;;;;;;;21.57;9.30;;;;;;;;;;5053059;28;20199;-75
2021/11/14 02:13:54;;;;;;;19.13;9.30;;;;;;;;;;5051239;28;20687;-75
2021/11/14 02:16:23;;;;;;;18.90;9.17;;;;;;;;;;5051290;28;20222;-76
2021/11/14 02:18:52;;;;;;;19.97;9.40;;;;;;;;;;5052627;28;20560;-75
2021/11/14 02:21:20;;;;;;;19.47;8.80;;;;;;;;;;5055957;28;20199;-75
2021/11/14 02:23:50;;;;;;;21.90;9.37;;;;;;;;;;5054089;28;20298;-75
2021/11/14 02:26:18;;;;;;;22.03;9.77;;;;;;;;;;5052030;28;20305;-76
2021/11/14 02:28:45;;;;;;;18.30;9.43;;;;;;;;;;5050956;28;21525;-75
2021/11/14 02:31:12;;;;;;;20.07;10.03;;;;;;;;;;5049964;28;20614;-74
2021/11/14 02:33:40;;;;;;;21.87;10.03;;;;;;;;;;5052769;28;20313;-75
2021/11/14 02:36:09;;;;;;;16.37;9.20;;;;;;;;;;5050115;28;20744;-76
2021/11/14 02:38:38;;;;;;;19.23;8.80;;;;;;;;;;5048283;28;20555;-75
2021/11/14 02:41:05;;;;;;;18.70;9.13;;;;;;;;;;5050867;28;21009;-76
2021/11/14 02:43:33;;;;;;;17.17;8.97;;;;;;;;;;5052725;28;20199;-73
2021/11/14 02:46:00;;;;;;;17.27;8.53;;;;;;;;;;5057554;28;20212;-75
2021/11/14 02:48:27;;;;;;;16.97;9.10;;;;;;;;;;5061447;28;20286;-76
2021/11/14 02:50:56;;;;;;;19.07;8.87;;;;;;;;;;5058304;28;20643;-75
2021/11/14 02:53:24;;;;;;;17.57;8.37;;;;;;;;;;5057184;28;20322;-76
2021/11/14 02:55:54;;;;;;;17.33;8.93;;;;;;;;;;5058890;28;20244;-75
2021/11/14 02:58:23;;;;;;;17.70;8.43;;;;;;;;;;5055233;28;20298;-76
2021/11/14 03:00:52;;;;;;;16.33;8.80;;;;;;;;;;5053030;28;20227;-75
2021/11/14 03:03:19;;;;;;;19.50;8.87;;;;;;;;;;5054577;28;20194;-75
2021/11/14 03:05:47;;;;;;;20.80;9.30;;;;;;;;;;5060636;28;20297;-76
2021/11/14 03:08:14;;;;;;;18.90;9.00;;;;;;;;;;5056276;28;20289;-75
2021/11/14 03:10:42;;;;;;;13.77;7.97;;;;;;;;;;5053658;28;20303;-74
2021/11/14 03:13:11;;;;;;;15.47;8.43;;;;;;;;;;5054137;28;20222;-75
2021/11/14 03:15:40;;;;;;;20.57;9.43;;;;;;;;;;5054823;28;20213;-74
2021/11/14 03:18:08;;;;;;;20.43;9.10;;;;;;;;;;5067372;22;20729;-75
2021/11/14 03:20:36;;;;;;;22.13;9.17;;;;;;;;;;5055033;28;20254;-75
2021/11/14 03:23:04;;;;;;;17.87;8.80;;;;;;;;;;5056249;28;20326;-73
2021/11/14 03:25:31;;;;;;;17.80;8.57;;;;;;;;;;5057071;28;20644;-75
2021/11/14 03:27:59;;;;;;;30.47;9.60;;;;;;;;;;5059728;28;20740;-73
2021/11/14 03:30:28;;;;;;;17.50;8.43;;;;;;;;;;5057841;28;20256;-75
2021/11/14 03:32:56;;;;;;;17.07;8.40;;;;;;;;;;5056180;28;20318;-74
2021/11/14 03:35:24;;;;;;;20.37;8.97;;;;;;;;;;5056144;28;20218;-74
2021/11/14 03:37:52;;;;;;;14.03;8.23;;;;;;;;;;5054148;28;20298;-76
2021/11/14 03:40:20;;;;;;;17.27;8.43;;;;;;;;;;5053793;28;20228;-75
2021/11/14 03:42:48;;;;;;;18.23;8.70;;;;;;;;;;5055467;28;20273;-75
2021/11/14 03:45:15;;;;;;;18.07;8.07;;;;;;;;;;5053319;28;20211;-75
2021/11/14 03:47:44;;;;;;;23.03;9.53;;;;;;;;;;5054654;28;20676;-75
2021/11/14 03:50:12;;;;;;;17.10;7.97;;;;;;;;;;5057330;28;20230;-74
2021/11/14 03:52:39;;;;;;;18.87;8.23;;;;;;;;;;5054274;28;20325;-75
2021/11/14 03:55:07;;;;;;;18.00;8.90;;;;;;;;;;5052909;28;20235;-75
2021/11/14 03:57:35;;;;;;;17.87;9.33;;;;;;;;;;5057597;28;20294;-76
2021/11/14 04:00:02;;;;;;;15.90;8.73;;;;;;;;;;5050474;28;20741;-75
2021/11/14 04:02:30;;;;;;;18.50;8.97;;;;;;;;;;5054489;28;20309;-75
2021/11/14 04:04:59;;;;;;;19.07;9.30;;;;;;;;;;5054121;28;20687;-75
2021/11/14 04:07:26;;;;;;;23.90;10.07;;;;;;;;;;5055613;28;20201;-74
2021/11/14 04:09:53;;;;;;;19.17;9.37;;;;;;;;;;5055989;28;20304;-75
2021/11/14 04:12:21;;;;;;;14.67;8.20;;;;;;;;;;5055799;28;20265;-76
2021/11/14 04:14:48;;;;;;;18.77;9.67;;;;;;;;;;5053447;28;20288;-76
2021/11/14 04:17:15;;;;;;;15.87;9.20;;;;;;;;;;5056397;28;20202;-75
2021/11/14 04:19:42;;;;;;;16.40;8.47;;;;;;;;;;5054452;28;20325;-75
2021/11/14 04:22:11;;;;;;;22.87;10.07;;;;;;;;;;5053254;28;20306;-75
2021/11/14 04:24:38;;;;;;;20.27;9.67;;;;;;;;;;5056843;28;20241;-76
2021/11/14 04:27:06;;;;;;;20.93;9.37;;;;;;;;;;5054787;28;22169;-75
2021/11/14 04:29:33;;;;;;;20.07;8.80;;;;;;;;;;5053447;28;20347;-75
2021/11/14 04:32:00;;;;;;;14.97;8.63;;;;;;;;;;5053643;28;20202;-76
2021/11/14 04:34:27;;;;;;;20.63;9.53;;;;;;;;;;5055033;28;20699;-76
2021/11/14 04:36:54;;;;;;;17.77;8.50;;;;;;;;;;5058592;28;20656;-75
2021/11/14 04:39:23;;;;;;;19.00;9.00;;;;;;;;;;5060769;28;20229;-75
2021/11/14 04:41:50;;;;;;;18.30;9.03;;;;;;;;;;5054943;28;20202;-76
2021/11/14 04:44:17;;;;;;;17.43;8.00;;;;;;;;;;5054769;28;20261;-75
2021/11/14 04:46:45;;;;;;;14.33;7.90;;;;;;;;;;5054590;28;20285;-76
2021/11/14 04:49:12;;;;;;;14.70;8.10;;;;;;;;;;5054922;28;20663;-75
2021/11/14 04:51:39;;;;;;;17.63;8.13;;;;;;;;;;5053580;28;20584;-74
2021/11/14 04:54:07;;;;;;;17.17;7.80;;;;;;;;;;5055194;28;20756;-75
2021/11/14 04:56:35;;;;;;;13.87;7.57;;;;;;;;;;5053272;28;20646;-76
2021/11/14 04:59:02;;;;;;;15.20;7.83;;;;;;;;;;5052941;28;20289;-76
2021/11/14 05:01:29;;;;;;;14.67;7.80;;;;;;;;;;5055464;28;20206;-75
2021/11/14 05:03:57;;;;;;;17.03;8.57;;;;;;;;;;5052571;28;20720;-75
2021/11/14 05:06:24;;;;;;;15.27;8.37;;;;;;;;;;5051008;28;20226;-74
2021/11/14 05:08:51;;;;;;;16.90;7.53;;;;;;;;;;5053752;28;20216;-75
2021/11/14 05:11:18;;;;;;;16.90;7.47;;;;;;;;;;5052839;28;21211;-75
2021/11/14 05:13:47;;;;;;;13.60;7.60;;;;;;;;;;5054019;28;20331;-75
2021/11/14 05:16:15;;;;;;;13.00;7.33;;;;;;;;;;5054701;28;20229;-75
2021/11/14 05:18:42;;;;;;;16.53;7.00;;;;;;;;;;5051489;28;20793;-75
2021/11/14 05:21:09;;;;;;;12.47;6.90;;;;;;;;;;5053596;28;20308;-76
2021/11/14 05:23:37;;;;;;;15.13;7.37;;;;;;;;;;5055002;28;20202;-75
2021/11/14 05:26:05;;;;;;;15.13;6.83;;;;;;;;;;5055477;28;20289;-75
2021/11/14 05:28:32;;;;;;;15.73;6.87;;;;;;;;;;5054249;28;20776;-75
2021/11/14 05:31:01;;;;;;;15.40;6.67;;;;;;;;;;5051792;28;20718;-75
2021/11/14 05:33:28;;;;;;;14.67;7.63;;;;;;;;;;5054851;28;20760;-75
2021/11/14 05:35:55;;;;;;;16.63;7.47;;;;;;;;;;5054890;28;20320;-75
2021/11/14 05:38:23;;;;;;;12.77;6.40;;;;;;;;;;5052640;28;20764;-75
2021/11/14 05:40:50;;;;;;;13.00;7.07;;;;;;;;;;5053521;28;20245;-74
2021/11/14 05:43:17;;;;;;;11.60;6.67;;;;;;;;;;5055837;28;20694;-75
2021/11/14 05:45:44;;;;;;;11.97;6.70;;;;;;;;;;5058478;28;20241;-74
2021/11/14 05:48:14;;;;;;;13.70;6.00;;;;;;;;;;5056858;28;20297;-75
2021/11/14 05:50:41;;;;;;;12.03;6.50;;;;;;;;;;5055226;28;20298;-75
2021/11/14 05:53:09;;;;;;;12.83;6.57;;;;;;;;;;5053776;28;20222;-75
2021/11/14 05:55:37;;;;;;;11.40;6.13;;;;;;;;;;5052660;28;20747;-75
2021/11/14 05:58:07;;;;;;;12.87;6.30;;;;;;;;;;5055491;28;20210;-75
2021/11/14 06:00:40;;;;;;;14.27;7.10;;;;;;;;;;5050654;28;20223;-75
2021/11/14 06:03:11;;;;;;;14.93;6.53;;;;;;;;;;5054591;28;20298;-75
2021/11/14 06:05:40;;;;;;;12.57;6.87;;;;;;;;;;5055150;28;20653;-74
2021/11/14 06:08:08;;;;;;;12.67;6.57;;;;;;;;;;5051052;28;20242;-74
2021/11/14 06:10:35;;;;;;;12.53;6.93;;;;;;;;;;5048811;28;20303;-74
2021/11/14 06:13:05;;;;;;;15.50;7.40;;;;;;;;;;5050970;28;20223;-75
2021/11/14 06:15:32;;;;;;;12.60;7.03;;;;;;;;;;5049938;28;20246;-75
2021/11/14 06:17:59;;;;;;;12.57;6.83;;;;;;;;;;5050562;28;20271;-74
2021/11/14 06:20:27;;;;;;;12.20;6.60;;;;;;;;;;5048608;28;20269;-75
2021/11/14 06:22:56;;;;;;;11.33;6.27;;;;;;;;;;5047061;28;20203;-75
2021/11/14 06:25:24;;;;;;;9.40;5.53;;;;;;;;;;5050319;28;20213;-75
2021/11/14 06:27:51;;;;;;;15.50;6.40;;;;;;;;;;5050444;28;20232;-75
2021/11/14 06:30:18;;;;;;;9.83;6.03;;;;;;;;;;5049582;28;20321;-75
2021/11/14 06:32:45;;;;;;;11.03;5.97;;;;;;;;;;5048101;28;20824;-74
2021/11/14 06:35:13;;;;;;;11.13;6.37;;;;;;;;;;5052412;28;20210;-74
2021/11/14 06:37:40;;;;;;;11.23;6.57;;;;;;;;;;5053745;28;20296;-75
2021/11/14 06:40:10;;;;;;;15.43;7.57;;;;;;;;;;5048326;28;20228;-75
2021/11/14 06:42:37;;;;;;;11.43;6.30;;;;;;;;;;5050474;28;20218;-75
2021/11/14 06:45:05;;;;;;;14.63;7.13;;;;;;;;;;5050518;28;21311;-75
2021/11/14 06:47:32;;;;;;;12.10;6.70;;;;;;;;;;5050157;28;20482;-75
2021/11/14 06:49:59;;;;;;;12.23;6.87;;;;;;;;;;5048494;28;20290;-75
2021/11/14 06:52:26;;;;;;;10.97;6.10;;;;;;;;;;5052549;28;20206;-75
2021/11/14 06:54:54;;;;;;;11.03;6.03;;;;;;;;;;5059445;28;20316;-75
2021/11/14 06:57:22;;;;;;;11.77;6.57;;;;;;;;;;5059148;28;20226;-75
2021/11/14 06:59:50;;;;;;;11.63;6.57;;;;;;;;;;5056845;28;20348;-75
2021/11/14 07:02:17;;;;;;;11.93;6.53;;;;;;;;;;5056341;28;20285;-75
2021/11/14 07:04:44;;;;;;;11.57;6.83;;;;;;;;;;5056114;28;20285;-76
2021/11/14 07:07:11;;;;;;;13.27;7.07;;;;;;;;;;5057698;28;20298;-75
2021/11/14 07:09:39;;;;;;;13.67;7.13;;;;;;;;;;5054999;28;20322;-74
2021/11/14 07:12:06;;;;;;;12.77;6.93;;;;;;;;;;5054622;28;20649;-75
2021/11/14 07:14:35;;;;;;;15.23;7.50;;;;;;;;;;5050448;28;20219;-75
2021/11/14 07:17:02;;;;;;;18.23;7.77;;;;;;;;;;5055867;28;20674;-75
2021/11/14 07:19:29;;;;;;;12.63;6.87;;;;;;;;;;5051307;28;20276;-74
2021/11/14 07:21:57;;;;;;;10.93;6.43;;;;;;;;;;5055491;28;20638;-75
2021/11/14 07:24:25;;;;;;;18.67;7.00;;;;;;;;;;5051567;28;20194;-76
2021/11/14 07:26:52;;;;;;;12.87;6.97;;;;;;;;;;5053315;28;20298;-76
2021/11/14 07:29:19;;;;;;;13.17;7.40;;;;;;;;;;5055261;28;20368;-76
2021/11/14 07:31:48;;;;;;;12.77;7.23;;;;;;;;;;5055495;28;20198;-75
2021/11/14 07:34:15;;;;;;;12.47;7.23;;;;;;;;;;5054120;28;20786;-75
2021/11/14 07:36:42;;;;;;;12.30;6.77;;;;;;;;;;5054709;28;20220;-75
2021/11/14 07:39:09;;;;;;;15.17;8.53;;;;;;;;;;5053742;28;20209;-75
2021/11/14 07:41:37;;;;;;;13.63;7.37;;;;;;;;;;5055608;28;20305;-75
2021/11/14 07:44:04;;;;;;;12.07;7.37;;;;;;;;;;5056121;28;20205;-75
2021/11/14 07:46:31;;;;;;;16.30;8.60;;;;;;;;;;5054911;28;20256;-75
2021/11/14 07:49:00;;;;;;;18.43;10.63;;;;;;;;;;5057382;28;20234;-76
2021/11/14 07:51:27;;;;;;;20.77;12.93;;;;;;;;;;5054693;28;20653;-75
2021/11/14 07:53:54;;;;;;;28.40;15.50;;;;;;;;;;5054514;28;20313;-75
2021/11/14 07:56:21;;;;;;;21.70;12.00;;;;;;;;;;5053923;28;20567;-75
2021/11/14 07:58:49;;;;;;;22.00;11.70;;;;;;;;;;5053655;28;20316;-76
2021/11/14 08:01:16;;;;;;;19.17;12.03;;;;;;;;;;5055676;28;20295;-74
2021/11/14 08:03:43;;;;;;;21.47;11.97;;;;;;;;;;5059102;28;20226;-75
2021/11/14 08:06:12;;;;;;;13.50;8.17;;;;;;;;;;5056515;28;20205;-75
2021/11/14 08:08:40;;;;;;;16.00;8.30;;;;;;;;;;5055858;28;20203;-74
2021/11/14 08:11:07;;;;;;;13.60;7.67;;;;;;;;;;5053195;28;20576;-75
2021/11/14 08:13:34;;;;;;;13.57;8.47;;;;;;;;;;5054054;28;20205;-76
2021/11/14 08:16:01;;;;;;;15.10;8.33;;;;;;;;;;5051923;28;20288;-75
2021/11/14 08:18:29;;;;;;;13.00;7.43;;;;;;;;;;5056760;28;20321;-75
2021/11/14 08:20:56;;;;;;;14.30;8.03;;;;;;;;;;5052838;28;20226;-74
2021/11/14 08:23:25;;;;;;;17.33;8.87;;;;;;;;;;5056071;28;20288;-75
2021/11/14 08:25:53;;;;;;;14.47;7.47;;;;;;;;;;5054661;28;20664;-76
2021/11/14 08:28:20;;;;;;;13.10;7.47;;;;;;;;;;5055516;28;20286;-75
2021/11/14 08:30:47;;;;;;;12.90;7.27;;;;;;;;;;5051893;28;20289;-75
2021/11/14 08:33:14;;;;;;;12.40;6.90;;;;;;;;;;5052995;28;20290;-76
2021/11/14 08:35:42;;;;;;;15.83;7.37;;;;;;;;;;5055410;28;20326;-75
2021/11/14 08:38:09;;;;;;;11.87;7.53;;;;;;;;;;5052917;28;20869;-75
2021/11/14 08:40:39;;;;;;;20.37;10.60;;;;;;;;;;5054227;28;20241;-75
2021/11/14 08:43:08;;;;;;;29.50;15.63;;;;;;;;;;5053399;28;20289;-74
2021/11/14 08:45:35;;;;;;;34.40;16.87;;;;;;;;;;5053867;28;20202;-75
2021/11/14 08:48:03;;;;;;;35.43;16.53;;;;;;;;;;5053586;28;20732;-75
2021/11/14 08:50:30;;;;;;;19.70;11.53;;;;;;;;;;5051683;28;20342;-75
2021/11/14 08:52:58;;;;;;;19.03;10.10;;;;;;;;;;5052874;28;20309;-76
2021/11/14 08:55:27;;;;;;;18.40;9.47;;;;;;;;;;5051084;28;20348;-75
2021/11/14 08:57:56;;;;;;;16.20;8.83;;;;;;;;;;5054363;28;20365;-76
2021/11/14 09:00:24;;;;;;;15.53;8.93;;;;;;;;;;5052463;28;20226;-75
2021/11/14 09:02:52;;;;;;;13.53;8.27;;;;;;;;;;5051512;28;20298;-75
2021/11/14 09:05:21;;;;;;;13.47;7.63;;;;;;;;;;5051161;28;20587;-74
2021/11/14 09:07:49;;;;;;;10.73;6.37;;;;;;;;;;5054554;28;20572;-74
2021/11/14 09:10:16;;;;;;;10.73;6.70;;;;;;;;;;5054848;28;20242;-74
2021/11/14 09:12:43;;;;;;;9.33;6.20;;;;;;;;;;5058135;28;20241;-75
2021/11/14 09:15:13;;;;;;;10.83;6.33;;;;;;;;;;5055118;28;20368;-75
2021/11/14 09:17:40;;;;;;;10.17;4.73;;;;;;;;;;5054371;28;20289;-76
2021/11/14 09:20:08;;;;;;;6.27;4.13;;;;;;;;;;5053180;28;20265;-75
2021/11/14 09:22:35;;;;;;;6.80;3.93;;;;;;;;;;5054311;28;20282;-76
2021/11/14 09:25:03;;;;;;;6.13;4.33;;;;;;;;;;5048150;28;20284;-76
2021/11/14 09:27:30;;;;;;;6.70;4.60;;;;;;;;;;5042430;28;20212;-75
2021/11/14 09:29:58;;;;;;;8.07;5.43;;;;;;;;;;5042452;28;20229;-75
2021/11/14 09:32:26;;;;;;;10.30;5.90;;;;;;;;;;5050372;28;20672;-76
2021/11/14 09:34:53;;;;;;;9.60;5.07;;;;;;;;;;5039932;28;20218;-75
2021/11/14 09:37:20;;;;;;;6.87;4.20;;;;;;;;;;5045414;28;20206;-75
2021/11/14 09:39:48;;;;;;;12.03;6.43;;;;;;;;;;5045944;28;20241;-76
2021/11/14 09:42:15;;;;;;;12.00;6.97;;;;;;;;;;5057348;28;20208;-75
2021/11/14 09:44:42;;;;;;;8.40;5.50;;;;;;;;;;5057477;28;20202;-74
2021/11/14 09:47:10;;;;;;;8.70;5.50;;;;;;;;;;5055301;28;20301;-74
2021/11/14 09:49:38;;;;;;;7.30;4.73;;;;;;;;;;5057153;28;20356;-76
2021/11/14 09:52:06;;;;;;;8.13;5.00;;;;;;;;;;5058868;28;20756;-75
2021/11/14 09:54:34;;;;;;;11.27;6.47;;;;;;;;;;5056668;28;20356;-75
2021/11/14 09:57:01;;;;;;;7.20;4.60;;;;;;;;;;5057127;28;20219;-75
2021/11/14 09:59:29;;;;;;;6.10;4.07;;;;;;;;;;5058781;28;20364;-76
2021/11/14 10:01:57;;;;;;;8.93;5.57;;;;;;;;;;5055642;28;20332;-76
2021/11/14 10:04:25;;;;;;;9.40;5.63;;;;;;;;;;5059871;28;20270;-75
2021/11/14 10:06:57;;;;;;;7.87;5.30;;;;;;;;;;5060334;28;20754;-75
2021/11/14 10:09:29;;;;;;;6.73;4.40;;;;;;;;;;5058827;28;20218;-75
2021/11/14 10:11:56;;;;;;;9.30;5.20;;;;;;;;;;5054543;28;20570;-75
2021/11/14 10:14:24;;;;;;;8.33;5.20;;;;;;;;;;5058377;28;20272;-75
2021/11/14 10:16:51;;;;;;;9.03;5.63;;;;;;;;;;5058351;28;20776;-75
2021/11/14 10:19:18;;;;;;;9.33;5.53;;;;;;;;;;5062576;28;20279;-76
2021/11/14 10:21:47;;;;;;;7.60;4.83;;;;;;;;;;5063002;28;20245;-75
2021/11/14 10:24:16;;;;;;;6.67;4.50;;;;;;;;;;5055908;28;20214;-76
2021/11/14 10:26:43;;;;;;;7.20;4.37;;;;;;;;;;5052973;28;20303;-76
2021/11/14 10:29:12;;;;;;;6.93;4.50;;;;;;;;;;5050622;28;20189;-75
2021/11/14 10:31:39;;;;;;;7.93;4.97;;;;;;;;;;5046150;28;20672;-75
2021/11/14 10:34:08;;;;;;;7.87;5.23;;;;;;;;;;5048534;28;20380;-76
2021/11/14 10:36:35;;;;;;;7.20;4.50;;;;;;;;;;5051113;28;20330;-75
2021/11/14 10:39:04;;;;;;;7.37;4.57;;;;;;;;;;5049397;28;20965;-74
2021/11/14 10:41:32;;;;;;;6.57;4.07;;;;;;;;;;5048072;28;20834;-75
2021/11/14 10:44:09;;;;;;;7.03;4.27;;;;;;;;;;5052909;28;20211;-75
2021/11/14 10:46:38;;;;;;;5.93;4.50;;;;;;;;;;5058100;28;20681;-77
2021/11/14 10:49:05;;;;;;;6.80;4.43;;;;;;;;;;5060380;28;20584;-75
2021/11/14 10:51:34;;;;;;;6.47;4.20;;;;;;;;;;5056433;28;20226;-76
2021/11/14 10:54:01;;;;;;;5.37;3.50;;;;;;;;;;5056135;28;20289;-75
2021/11/14 10:56:28;;;;;;;6.03;3.87;;;;;;;;;;5060330;28;20296;-75
2021/11/14 10:58:57;;;;;;;6.47;3.87;;;;;;;;;;5057203;28;20261;-76
2021/11/14 11:01:25;;;;;;;5.70;3.57;;;;;;;;;;5058334;28;20235;-74
2021/11/14 11:03:53;;;;;;;6.37;4.10;;;;;;;;;;5058824;28;20206;-75
2021/11/14 11:06:22;;;;;;;5.87;3.80;;;;;;;;;;5055680;28;20234;-75
2021/11/14 11:08:50;;;;;;;8.73;5.43;;;;;;;;;;5053479;28;20332;-76
2021/11/14 11:11:21;;;;;;;5.67;3.77;;;;;;;;;;5057462;28;20203;-76
2021/11/14 11:13:49;;;;;;;5.13;3.50;;;;;;;;;;5056502;28;20286;-76
2021/11/14 11:16:20;;;;;;;5.93;3.73;;;;;;;;;;5059919;28;20218;-76
2021/11/14 11:18:56;;;;;;;5.77;3.47;;;;;;;;;;5056166;28;20357;-76
2021/11/14 11:21:28;;;;;;;4.97;3.70;;;;;;;;;;5060422;28;20199;-76
2021/11/14 11:24:05;;;;;;;4.90;3.43;;;;;;;;;;5057871;28;20238;-78
2021/11/14 11:26:33;;;;;;;5.47;3.67;;;;;;;;;;5063749;28;20254;-76
2021/11/14 11:29:00;;;;;;;5.47;3.57;;;;;;;;;;5076443;28;20210;-76
2021/11/14 11:31:28;;;;;;;4.50;3.27;;;;;;;;;;5062371;28;20259;-78
2021/11/14 11:33:56;;;;;;;5.90;3.60;;;;;;;;;;5062469;28;20226;-78
2021/11/14 11:36:24;;;;;;;5.17;3.57;;;;;;;;;;5055251;28;20834;-77
2021/11/14 11:38:53;;;;;;;5.93;3.77;;;;;;;;;;5053312;28;20237;-76
2021/11/14 11:41:21;;;;;;;6.07;4.10;;;;;;;;;;5057586;28;20198;-77
2021/11/14 11:43:50;;;;;;;6.33;4.10;;;;;;;;;;5058865;28;20664;-77
2021/11/14 11:46:19;;;;;;;6.07;3.97;;;;;;;;;;5057310;28;20209;-77
2021/11/14 11:48:50;;;;;;;6.37;4.30;;;;;;;;;;5055371;28;20744;-77
2021/11/14 11:51:21;;;;;;;6.17;4.30;;;;;;;;;;5054797;28;20314;-77
2021/11/14 11:53:56;;;;;;;5.67;3.90;;;;;;;;;;5053400;28;20246;-76
2021/11/14 11:56:35;;;;;;;6.60;3.93;;;;;;;;;;5052807;28;20221;-76
2021/11/14 11:59:02;;;;;;;6.17;4.30;;;;;;;;;;5056970;28;20234;-77
2021/11/14 12:01:31;;;;;;;5.97;4.07;;;;;;;;;;5058163;28;20239;-77
2021/11/14 12:04:11;;;;;;;7.07;4.63;;;;;;;;;;5054032;28;20874;-76
2021/11/14 12:06:41;;;;;;;6.93;4.50;;;;;;;;;;5056912;28;20206;-77
2021/11/14 12:09:10;;;;;;;7.10;4.93;;;;;;;;;;5054815;28;20224;-77
2021/11/14 12:11:38;;;;;;;7.20;4.70;;;;;;;;;;5056315;28;20206;-77
2021/11/14 12:14:15;;;;;;;7.47;4.57;;;;;;;;;;5055218;28;20256;-77
2021/11/14 12:16:42;;;;;;;8.13;4.93;;;;;;;;;;5054347;28;20885;-77
2021/11/14 12:19:23;;;;;;;7.00;4.47;;;;;;;;;;5055076;28;20213;-75
2021/11/14 12:21:55;;;;;;;9.93;5.20;;;;;;;;;;5054017;28;20210;-76
2021/11/14 12:24:22;;;;;;;7.47;4.80;;;;;;;;;;5054397;28;20551;-76
2021/11/14 12:26:49;;;;;;;12.17;4.90;;;;;;;;;;5051997;28;20198;-76
2021/11/14 12:29:28;;;;;;;7.27;5.03;;;;;;;;;;5058825;28;20251;-79
2021/11/14 12:31:57;;;;;;;7.53;4.80;;;;;;;;;;5058613;28;20237;-75
2021/11/14 12:34:27;;;;;;;11.83;5.60;;;;;;;;;;5060770;28;20202;-75
2021/11/14 12:37:05;;;;;;;12.60;7.37;;;;;;;;;;5077356;28;20240;-76
2021/11/14 12:39:33;;;;;;;8.57;5.57;;;;;;;;;;5065447;28;20648;-76
2021/11/14 12:42:03;;;;;;;11.60;5.90;;;;;;;;;;5057339;28;20290;-76
2021/11/14 12:44:35;;;;;;;12.57;7.37;;;;;;;;;;5057091;28;20203;-75
2021/11/14 12:47:03;;;;;;;11.53;6.73;;;;;;;;;;5056440;28;20637;-76
2021/11/14 12:49:38;;;;;;;8.17;5.13;;;;;;;;;;5054948;28;20249;-76
2021/11/14 12:52:06;;;;;;;9.30;5.13;;;;;;;;;;5056664;28;20220;-75
2021/11/14 12:54:33;;;;;;;6.23;4.40;;;;;;;;;;5054983;28;20260;-78
2021/11/14 12:57:09;;;;;;;6.83;4.30;;;;;;;;;;5059871;28;20305;-75
2021/11/14 12:59:42;;;;;;;6.27;4.13;;;;;;;;;;5053618;28;20317;-75
2021/11/14 13:02:17;;;;;;;6.43;4.00;;;;;;;;;;5052646;28;20712;-76
2021/11/14 13:04:45;;;;;;;6.13;4.03;;;;;;;;;;5057702;28;20198;-75
2021/11/14 13:07:22;;;;;;;6.43;4.23;;;;;;;;;;5057608;28;20280;-78
2021/11/14 13:09:51;;;;;;;5.67;3.73;;;;;;;;;;5051993;28;20329;-76
2021/11/14 13:12:19;;;;;;;7.17;4.37;;;;;;;;;;5053021;28;20198;-76
2021/11/14 13:14:47;;;;;;;6.20;4.47;;;;;;;;;;5052685;28;20658;-76
2021/11/14 13:17:17;;;;;;;6.23;4.40;;;;;;;;;;5054998;28;20318;-77
2021/11/14 13:19:46;;;;;;;6.73;4.50;;;;;;;;;;5047764;28;20238;-75
2021/11/14 13:22:16;;;;;;;6.20;4.30;;;;;;;;;;5056837;28;20221;-75
2021/11/14 13:24:48;;;;;;;7.60;4.10;;;;;;;;;;5055922;28;20195;-76
2021/11/14 13:27:16;;;;;;;6.10;4.13;;;;;;;;;;5055650;28;20312;-75
2021/11/14 13:29:44;;;;;;;6.77;4.33;;;;;;;;;;5055017;28;20776;-77
2021/11/14 13:32:13;;;;;;;6.47;4.23;;;;;;;;;;5051206;28;20501;-76
2021/11/14 13:34:41;;;;;;;5.90;4.13;;;;;;;;;;5051439;28;20233;-76
2021/11/14 13:37:10;;;;;;;7.37;4.47;;;;;;;;;;5049282;28;20229;-76
2021/11/14 13:39:39;;;;;;;7.00;4.53;;;;;;;;;;5050583;28;20234;-76
2021/11/14 13:42:08;;;;;;;6.90;4.57;;;;;;;;;;5047778;28;20306;-76
2021/11/14 13:44:37;;;;;;;9.70;5.73;;;;;;;;;;5059673;28;20225;-76
2021/11/14 13:47:05;;;;;;;8.47;5.77;;;;;;;;;;5062978;28;20229;-76
2021/11/14 13:49:33;;;;;;;14.13;6.60;;;;;;;;;;5055363;28;20232;-75
2021/11/14 13:52:01;;;;;;;9.10;5.87;;;;;;;;;;5053751;28;20215;-77
2021/11/14 13:54:29;;;;;;;8.43;5.40;;;;;;;;;;5054323;28;20210;-77
2021/11/14 13:56:56;;;;;;;8.33;5.53;;;;;;;;;;5058153;28;20317;-77
2021/11/14 13:59:24;;;;;;;11.00;5.70;;;;;;;;;;5052730;28;20227;-77
2021/11/14 14:01:55;;;;;;;10.30;5.87;;;;;;;;;;5051682;28;20349;-77
2021/11/14 14:04:22;;;;;;;11.90;6.33;;;;;;;;;;5053033;28;20286;-77
2021/11/14 14:06:58;;;;;;;8.73;5.47;;;;;;;;;;5054805;28;20282;-77
2021/11/14 14:09:26;;;;;;;12.57;6.53;;;;;;;;;;5054758;28;20716;-77
2021/11/14 14:11:54;;;;;;;10.83;6.17;;;;;;;;;;5049468;28;20230;-76
2021/11/14 14:14:21;;;;;;;12.33;6.77;;;;;;;;;;5051281;28;20237;-77
2021/11/14 14:16:49;;;;;;;10.50;6.57;;;;;;;;;;5053792;28;20307;-76
2021/11/14 14:19:16;;;;;;;11.40;6.60;;;;;;;;;;5052242;28;20266;-77
2021/11/14 14:21:43;;;;;;;10.23;6.37;;;;;;;;;;5059323;28;20285;-76
2021/11/14 14:24:10;;;;;;;12.37;6.70;;;;;;;;;;5058709;28;20282;-77
2021/11/14 14:26:39;;;;;;;11.33;6.70;;;;;;;;;;5059983;28;20232;-76
2021/11/14 14:29:10;;;;;;;11.13;6.87;;;;;;;;;;5056766;28;20293;-77
2021/11/14 14:31:38;;;;;;;11.20;7.00;;;;;;;;;;5059838;28;20210;-76
2021/11/14 14:34:09;;;;;;;17.20;7.87;;;;;;;;;;5055331;28;20277;-77
2021/11/14 14:36:37;;;;;;;13.00;8.13;;;;;;;;;;5057567;28;20228;-77